Aviation Digital Data Service (ADDS)

Output produced by METARs form (0419 UTC 04 March 2015)
found at http://aviationweather.gov/adds/metars/
 
KBHB 040314Z 0403/0424 19015G25KT 1SM -SN BR OVC015 
     FM040600 20015G25KT 1SM -SN BR OVC003 
     FM041100 23015G25KT P6SM OVC020 
     FM041400 24015G25KT P6SM BKN250 AMD LTD TO CLD VIS AND WIND